Tiempo atmosférico en la estación meteorológica de Castejon De Valdejasa, Zaragoza (442 m.)



Fecha
DESCASC
Temp. máxima en grados centígrados (hora)
DESCASC
Temp. mínima en grados centígrados (hora)
DESCASC
Temp. media en grados centígrados
DESCASC
Racha de viento máxima en m/sg (hora)
DESCASC
Velocidad máxima media en intervalos de 10 minutos(hora)
DESCASC
Precipitaciones diarias en mm
DESCASC
Precipitaciones de 00:00 a 06:00 en mm
DESCASC
Precipitaciones de 06:00 a 12:00 en mm
DESCASC
Precipitaciones de 12:00 a 18:00 en mm
DESCASC
Precipitaciones de 18:00 a 24:00 en mm
DESCASC
27-10-2020 15.2 (15:40) 3.7 (01:20) 9.4 5.83 (12:00) 4.17 (12:00) 0 0 0 0 0
26-10-2020 12.8 (16:40) 4.3 (23:50) 8.6 15.83 (12:50) 9.44 (15:20) 0.2 0.2 0 0 0
25-10-2020 16.1 (13:10) 9.1 (03:30) 12.6 10.56 (18:30) 6.94 (18:50) 6.6 0 0 0 6.6
24-10-2020 19.3 (16:00) 6.2 (00:00) 12.7 6.11 (11:50) 3.61 (22:50) 0 0 0 0 0
23-10-2020 18.2 (15:10) 10.9 (00:00) 14.6 10.83 (15:20) 8.33 (14:30) 0.6 0.2 0.2 0.2 0
22-10-2020 18.9 (13:50) 13.4 (00:00) 16.1 12.5 (15:30) 9.17 (15:00) 4.8 0 0 0.2 4.6
21-10-2020 22.5 (15:50) 14 (00:00) 18.3 20 (01:00) 15.28 (00:40) 0.2 0.2 0 0 0
20-10-2020 15.9 (16:50) 13.3 (00:00) 14.6 23.61 (19:20) 16.94 (18:50) 2 0 0.4 1.6 0
19-10-2020 19.9 (16:50) 9.6 (00:00) 14.8 18.33 (23:50) 12.78 (23:00) 0 0 0 0 0
18-10-2020 20.7 (18:00) 5.7 (00:00) 13.2 6.11 (12:40) 4.44 (12:50) 0 0 0 0 0
17-10-2020 16.2 (16:00) 2.4 (00:00) 9.3 8.89 (16:30) 5.83 (16:30) 0 0 0 0 0
16-10-2020 14.5 (17:00) 5 (00:00) 9.8 13.33 (04:10) 8.33 (04:30) 0 0 0 0 0
15-10-2020 13.1 (15:10) 4.8 (00:00) 9 15.83 (17:00) 10.28 (17:30) 0 0 0 0 0
14-10-2020 12.6 (14:10) 6.8 (00:00) 9.7 14.72 (17:20) 9.72 (17:30) 0 0 0 0 0
13-10-2020 16.9 (15:10) 8.1 (00:00) 12.5 14.72 (13:00) 9.17 (16:20) 0 0 0 0 0
12-10-2020 15.3 (15:00) 7.7 (00:00) 11.5 15.28 (16:10) 8.89 (13:40) 0 0 0 0 0
11-10-2020 14.1 (15:10) 7.7 (00:00) 10.9 18.33 (16:10) 10.28 (14:40) 0 0 0 0 0
10-10-2020 19 (13:10) 10.2 (00:00) 14.6 16.67 (17:00) 10 (16:30) 0 0 0 0 0
09-10-2020 23.9 (17:10) 12.6 (00:00) 18.3 6.11 (17:20) 4.44 (18:00) 0 0 0 0 0
08-10-2020 24.2 (15:30) 9.5 (00:00) 16.9 8.61 (00:30) 5.83 (00:30) 0 0 0 0 0
07-10-2020 21.1 (17:10) 12.5 (00:00) 16.8 12.78 (15:10) 7.5 (12:40) 0 0 0 0 0
06-10-2020 22 (15:40) 10.5 (00:00) 16.3 6.94 (18:00) 5 (13:50) 0 0 0 0 0
05-10-2020 17.4 (17:30) 5.3 (00:00) 11.3 13.06 (13:50) 8.61 (13:50) 0 0 0 0 0
04-10-2020 15.5 (14:20) 6.3 (00:00) 10.9 7.78 (15:30) 4.72 (11:20) 1 0 0 0.6 0.4
03-10-2020 16.6 (16:50) 6.2 (00:00) 11.4 11.39 (18:10) 7.78 (15:10) 0.4 0 0.4 0 0
02-10-2020 17.2 (02:10) 7.1 (00:00) 12.2 16.67 (08:30) 10.56 (08:30) 16 0.2 14.2 1.6 0
01-10-2020 21.1 (14:00) 12.3 (08:40) 16.7 10.28 (13:20) 6.94 (13:00) 0 0 0 0 0
30-09-2020 26.8 (17:10) 9.4 (00:00) 18.1 6.11 (13:10) 4.17 (18:20) 0 0 0 0 0

Gráficas

Temp. máximas Temp. mínimas Temp. medias Precipitaciones Rachas de viento máximas Velocidades máximas media en intervalos de 10 minutos

Datos horarios

Fecha y hora oficial Temperatura (ºC) Velocidad del viento (km/h) Dirección del viento Racha (km/h) Dirección de racha Precipitación (mm) Presión (hPa) Tendencia (hPa) Humedad (%)
2020-10-29 23:00:00 12.1 11 Nordeste 16 Nordeste 0 -- -- 77
2020-10-29 22:00:00 12.9 11 Nordeste 15 Nordeste 0 -- -- 73
2020-10-29 21:00:00 12.2 12 Nordeste 17 Nordeste 0 -- -- 77
2020-10-29 20:00:00 13.1 12 Nordeste 15 Nordeste 0 -- -- 74
2020-10-29 19:00:00 13.3 10 Nordeste 13 Nordeste 0 -- -- 71
2020-10-29 18:00:00 16.8 3 Este 10 Oeste 0 -- -- 58
2020-10-29 17:00:00 18.8 6 Oeste 14 Sudoeste 0 -- -- 52
2020-10-29 16:00:00 18.9 10 Oeste 17 Sudoeste 0 -- -- 55
2020-10-29 15:00:00 18.9 6 Oeste 18 Oeste 0 -- -- 56
2020-10-29 14:00:00 18.1 8 Sudoeste 17 Sudoeste 0 -- -- 57
2020-10-29 13:00:00 17.3 11 Oeste 17 Oeste 0 -- -- 60
2020-10-29 12:00:00 15.2 10 Oeste 16 Sudoeste 0 -- -- 65
2020-10-29 11:00:00 13.5 8 Oeste 13 Oeste 0 -- -- 70
2020-10-29 10:00:00 11.4 9 Oeste 12 Oeste 0 -- -- 78
2020-10-29 09:00:00 10.5 4 Nordeste 13 Nordeste 0 -- -- 83
2020-10-29 08:00:00 7.4 8 Este 12 Este 0 -- -- 91
2020-10-29 07:00:00 7.1 5 Este 10 Este 0 -- -- 91
2020-10-29 06:00:00 7.6 6 Este 9 Este 0 -- -- 91
2020-10-29 05:00:00 8.5 6 Nordeste 10 Este 0 -- -- 91
2020-10-29 04:00:00 7.9 8 Este 11 Este 0 -- -- 92
2020-10-29 03:00:00 9.6 4 Este 8 Nordeste 0 -- -- 90
2020-10-29 02:00:00 10.1 5 Oeste 8 Oeste 0 -- -- 86
2020-10-29 01:00:00 11.1 2 Noroeste 9 Este 0 -- -- 81
2020-10-29 00:00:00 10.4 8 Nordeste 12 Nordeste 0 -- -- 83
2020-10-28 23:00:00 10.9 8 Nordeste 12 Nordeste 0 -- -- 82
2020-10-28 22:00:00 11 9 Nordeste 10 Nordeste 0 -- -- 80
2020-10-28 21:00:00 11.6 6 Este 11 Este 0 -- -- 78
2020-10-28 20:00:00 12.6 7 Norte 12 Este 0 -- -- 76
2020-10-28 19:00:00 13.8 6 Este 9 Este 0 -- -- 72
2020-10-28 18:00:00 16.9 2 Noroeste 15 Noroeste 0 -- -- 61
2020-10-28 17:00:00 18.6 4 Sudeste 15 Este 0 -- -- 54
2020-10-28 16:00:00 17.6 5 Sudoeste 18 Sudoeste 0 -- -- 59
2020-10-28 15:00:00 17.8 11 Oeste 20 Oeste 0 -- -- 59
2020-10-28 14:00:00 17 13 Oeste 19 Oeste 0 -- -- 61
2020-10-28 13:00:00 17.2 9 Oeste 15 Oeste 0 -- -- 60
2020-10-28 12:00:00 16.3 6 Sudoeste 12 Oeste 0 -- -- 62
2020-10-28 11:00:00 14.5 4 Sudoeste 7 Sudoeste 0 -- -- 69
2020-10-28 10:00:00 12.6 2 Este 8 Nordeste 0 -- -- 78
2020-10-28 09:00:00 9.8 6 Nordeste 9 Nordeste 0 -- -- 89
2020-10-28 08:00:00 8.6 8 Nordeste 12 Nordeste 0 -- -- 86
2020-10-28 07:00:00 8.3 9 Nordeste 13 Este 0 -- -- 87
2020-10-28 06:00:00 8.1 4 Norte 11 Este 0 -- -- 82
2020-10-28 05:00:00 8.3 9 Nordeste 13 Nordeste 0 -- -- 85
2020-10-28 04:00:00 8.4 11 Nordeste 13 Nordeste 0 -- -- 85
2020-10-28 03:00:00 8.5 9 Nordeste 13 Nordeste 0 -- -- 82
2020-10-28 02:00:00 8.6 8 Este 12 Nordeste 0 -- -- 82
2020-10-28 01:00:00 9 9 Nordeste 10 Nordeste 0 -- -- 79
2020-10-28 00:00:00 9.2 8 Nordeste 12 Nordeste 0 -- -- 83
2020-10-27 23:00:00 9.4 9 Nordeste 13 Nordeste 0 -- -- 80
2020-10-27 22:00:00 8.8 10 Nordeste 13 Nordeste 0 -- -- 82
2020-10-27 21:00:00 10 4 Este 6 Este 0 -- -- 75
2020-10-27 20:00:00 10.5 2 Sudeste 9 Este 0 -- -- 72
2020-10-27 19:00:00 11.2 5 Este 9 Nordeste 0 -- -- 70
2020-10-27 18:00:00 12.7 6 Norte 10 Oeste 0 -- -- 63
2020-10-27 17:00:00 14 8 Oeste 17 Oeste 0 -- -- 56
2020-10-27 16:00:00 14.6 12 Sudoeste 19 Oeste 0 -- -- 51
2020-10-27 15:00:00 13.7 9 Oeste 17 Oeste 0 -- -- 54
2020-10-27 14:00:00 13.2 9 Oeste 19 Sudoeste 0 -- -- 59
2020-10-27 13:00:00 13.2 12 Oeste 20 Sudoeste 0 -- -- 59
2020-10-27 12:00:00 12.1 15 Oeste 21 Sudoeste 0 -- -- 63
2020-10-27 11:00:00 10.6 12 Oeste 18 Sudoeste 0 -- -- 70
2020-10-27 10:00:00 8 0 Calma 7 Este 0 -- -- 80
2020-10-27 09:00:00 5.8 6 Este 8 Este 0 -- -- 87
2020-10-27 08:00:00 5.1 4 Este 5 Este 0 -- -- 87
2020-10-27 07:00:00 5.4 0 Calma 9 Noroeste 0 -- -- 84
2020-10-27 06:00:00 5.9 4 Noroeste 9 Oeste 0 -- -- 83
2020-10-27 05:00:00 6 4 Oeste 8 Oeste 0 -- -- 84
2020-10-27 04:00:00 6.5 5 Oeste 16 Oeste 0 -- -- 82
2020-10-27 03:00:00 6.2 0 Calma 10 Noroeste 0 -- -- 84
2020-10-27 02:00:00 5.4 0 Calma 8 Este 0 -- -- 88
2020-10-27 01:00:00 4.1 6 Este 10 Este 0 -- -- 91
2020-10-27 00:00:00 4.4 7 Este 10 Nordeste 0 -- -- 89
2020-10-26 23:00:00 5.9 0 Calma 6 Este 0 -- -- 85
2020-10-26 22:00:00 6.7 0 Calma 10 Oeste 0 -- -- 84
2020-10-26 21:00:00 7.4 8 Oeste 17 Oeste 0 -- -- 81
2020-10-26 20:00:00 9 8 Noroeste 19 Noroeste 0 -- -- 71
2020-10-26 19:00:00 9.3 12 Noroeste 27 Noroeste 0 -- -- 71
2020-10-26 18:00:00 9.7 15 Noroeste 37 Noroeste 0 -- -- 70
2020-10-26 17:00:00 11.7 26 Noroeste 47 Noroeste 0 -- -- 63
2020-10-26 16:00:00 12.7 21 Oeste 53 Oeste 0 -- -- 59
2020-10-26 15:00:00 12.1 28 Oeste 52 Oeste 0 -- -- 60
2020-10-26 14:00:00 11.1 24 Noroeste 50 Oeste 0 -- -- 61
2020-10-26 13:00:00 11.8 33 Oeste 57 Oeste 0 -- -- 60
2020-10-26 12:00:00 10.4 26 Oeste 48 Oeste 0 -- -- 67
2020-10-26 11:00:00 8.7 29 Oeste 44 Noroeste 0 -- -- 77
2020-10-26 10:00:00 6.8 21 Oeste 39 Noroeste 0 -- -- 82
2020-10-26 09:00:00 7 21 Oeste 40 Noroeste 0 -- -- 79
2020-10-26 08:00:00 6.3 22 Noroeste 37 Noroeste 0 -- -- 81
2020-10-26 07:00:00 6.5 17 Noroeste 45 Noroeste 0 -- -- 81
2020-10-26 06:00:00 7.1 22 Noroeste 42 Oeste 0 -- -- 79
2020-10-26 05:00:00 5.7 15 Oeste 22 Noroeste 0 -- -- 92
2020-10-26 04:00:00 6.4 17 Oeste 26 Oeste 0 -- -- 88
2020-10-26 03:00:00 6.8 13 Oeste 28 Noroeste 0 -- -- 87
2020-10-26 02:00:00 7.9 19 Noroeste 34 Noroeste 0.2 -- -- 82
2020-10-26 01:00:00 9 11 Oeste 21 Noroeste 0 -- -- 81
2020-10-26 00:00:00 10.3 9 Noroeste 30 Oeste 0.2 -- -- 89
2020-10-25 23:00:00 11.1 17 Noroeste 26 Oeste 3 -- -- 89
2020-10-25 22:00:00 11.5 9 Noroeste 25 Noroeste 2.2 -- -- 90
2020-10-25 21:00:00 12.5 17 Noroeste 36 Oeste 1.2 -- -- 89
2020-10-25 20:00:00 15.8 23 Oeste 33 Sudoeste 0 -- -- 63
2020-10-25 19:00:00 15.9 17 Oeste 38 Oeste 0 -- -- 63
2020-10-25 18:00:00 16.1 16 Sudoeste 32 Sudoeste 0 -- -- 61
2020-10-25 17:00:00 15.9 17 Sudoeste 34 Sudoeste 0 -- -- 59
2020-10-25 16:00:00 15.6 21 Sudoeste 37 Sudoeste 0 -- -- 58
2020-10-25 15:00:00 16 22 Sudoeste 36 Sudoeste 0 -- -- 57
2020-10-25 14:00:00 16 19 Sudoeste 33 Sudoeste 0 -- -- 57
2020-10-25 13:00:00 16 15 Sudoeste 34 Oeste 0 -- -- 57
2020-10-25 12:00:00 15.9 15 Sudoeste 28 Oeste 0 -- -- 57
2020-10-25 11:00:00 15 14 Sudoeste 24 Sur 0 -- -- 60
2020-10-25 10:00:00 14 7 Sudoeste 26 Sudoeste 0 -- -- 63
2020-10-25 09:00:00 12.1 13 Oeste 23 Sudoeste 0 -- -- 71
2020-10-25 08:00:00 10.7 4 Norte 13 Noroeste 0 -- -- 75
2020-10-25 07:00:00 10.5 4 Este 11 Nordeste 0 -- -- 75
2020-10-25 06:00:00 10.7 4 Este 17 Este 0 -- -- 74
2020-10-25 05:00:00 10.2 3 Sudeste 15 Nordeste 0 -- -- 77
2020-10-25 04:00:00 10.3 10 Nordeste 17 Nordeste 0 -- -- 78
2020-10-25 03:00:00 10.3 4 Nordeste 13 Nordeste 0 -- -- 78
2020-10-25 02:00:00 11.3 3 Norte 13 Norte 0 -- -- 73
2020-10-25 01:00:00 9.9 7 Este 11 Nordeste 0 -- -- 78
2020-10-25 00:00:00 11.1 5 Este 13 Oeste 0 -- -- 73
2020-10-24 23:00:00 11.9 12 Oeste 18 Oeste 0 -- -- 70
2020-10-24 22:00:00 12.4 4 Nordeste 16 Oeste 0 -- -- 67
2020-10-24 21:00:00 13.5 3 Oeste 9 Sur 0 -- -- 63
2020-10-24 20:00:00 13.6 9 Nordeste 13 Nordeste 0 -- -- 63
2020-10-24 19:00:00 15 7 Nordeste 11 Norte 0 -- -- 60
2020-10-24 18:00:00 17.3 4 Nordeste 13 Nordeste 0 -- -- 54
2020-10-24 17:00:00 18.6 6 Oeste 15 Noroeste 0 -- -- 44
2020-10-24 16:00:00 19.3 5 Sur 17 Sudeste 0 -- -- 44
2020-10-24 15:00:00 18.5 8 Sudeste 18 Oeste 0 -- -- 48
2020-10-24 14:00:00 18.1 4 Sur 14 Este 0 -- -- 51
2020-10-24 13:00:00 15.5 4 Sudoeste 17 Oeste 0 -- -- 58
2020-10-24 12:00:00 14 12 Sudoeste 22 Oeste 0 -- -- 63
2020-10-24 11:00:00 12.8 4 Sudeste 9 Nordeste 0 -- -- 69
2020-10-24 10:00:00 9.6 6 Este 12 Nordeste 0 -- -- 85
2020-10-24 09:00:00 7 9 Nordeste 14 Nordeste 0 -- -- 89
2020-10-24 08:00:00 7.4 8 Nordeste 10 Nordeste 0 -- -- 84
2020-10-24 07:00:00 7.2 6 Nordeste 12 Nordeste 0 -- -- 88
2020-10-24 06:00:00 7.7 8 Nordeste 12 Este 0 -- -- 85
2020-10-24 05:00:00 6.9 10 Nordeste 13 Nordeste 0 -- -- 86
2020-10-24 04:00:00 7.7 9 Nordeste 12 Nordeste 0 -- -- 85
2020-10-24 03:00:00 8.1 7 Este 9 Este 0 -- -- 83
2020-10-24 02:00:00 8 8 Este 10 Este 0 -- -- 81
2020-10-24 01:00:00 9 6 Este 9 Nordeste 0 -- -- 77
2020-10-24 00:00:00 10.9 0 Calma 9 Oeste 0 -- -- 69
2020-10-23 23:00:00 11.9 8 Oeste 22 Oeste 0 -- -- 66
2020-10-23 22:00:00 13.8 13 Oeste 28 Noroeste 0 -- -- 57
2020-10-23 21:00:00 14.2 13 Noroeste 22 Noroeste 0 -- -- 54
2020-10-23 20:00:00 14 12 Noroeste 19 Noroeste 0 -- -- 57
2020-10-23 19:00:00 14.4 6 Norte 12 Noroeste 0 -- -- 61
2020-10-23 18:00:00 14.4 10 Noroeste 18 Noroeste 0.2 -- -- 67
2020-10-23 17:00:00 16.2 9 Noroeste 32 Oeste 0 -- -- 56
2020-10-23 16:00:00 17.9 24 Oeste 39 Oeste 0 -- -- 46
2020-10-23 15:00:00 17.3 21 Oeste 38 Oeste 0 -- -- 54
2020-10-23 14:00:00 17 23 Oeste 34 Oeste 0 -- -- 54
2020-10-23 13:00:00 15.6 16 Oeste 33 Oeste 0 -- -- 63
2020-10-23 12:00:00 14.9 22 Oeste 32 Oeste 0 -- -- 67
2020-10-23 11:00:00 13.5 23 Oeste 32 Oeste 0 -- -- 72
2020-10-23 10:00:00 12.7 17 Oeste 30 Oeste 0 -- -- 74
2020-10-23 09:00:00 11.4 4 Oeste 9 Sudoeste 0 -- -- 87
2020-10-23 08:00:00 12.1 6 Oeste 16 Oeste 0.2 -- -- 85
2020-10-23 07:00:00 13 12 Oeste 24 Sur 0 -- -- 85
2020-10-23 06:00:00 13.1 6 Sur 17 Sur 0 -- -- 89
2020-10-23 05:00:00 13.4 6 Este 15 Este 0 -- -- 87
2020-10-23 04:00:00 13.1 10 Este 15 Este 0 -- -- 93
2020-10-23 03:00:00 13.5 13 Este 17 Este 0 -- -- 92
2020-10-23 02:00:00 13.5 12 Este 17 Este 0 -- -- 92
2020-10-23 01:00:00 13.4 13 Este 23 Este 0.2 -- -- 93
2020-10-23 00:00:00 13.4 20 Este 26 Este 0 -- -- 93
2020-10-22 23:00:00 13.6 21 Este 32 Este 0 -- -- 93
2020-10-22 22:00:00 14 19 Este 40 Este 0 -- -- 93
2020-10-22 21:00:00 14.2 24 Este 32 Este 0 -- -- 94
2020-10-22 20:00:00 14.4 26 Este 42 Este 0.2 -- -- 93
2020-10-22 19:00:00 14.8 25 Este 39 Este 4.4 -- -- 91
2020-10-22 18:00:00 15.9 15 Este 39 Este 0.2 -- -- 87
2020-10-22 17:00:00 17.5 27 Este 42 Este 0 -- -- 75
2020-10-22 16:00:00 17.7 32 Este 45 Este 0 -- -- 72
2020-10-22 15:00:00 18 33 Este 44 Este 0 -- -- 71
2020-10-22 14:00:00 18.6 32 Este 42 Este 0 -- -- 75
2020-10-22 13:00:00 17.7 27 Este 39 Este 0 -- -- 79
2020-10-22 12:00:00 16.4 31 Este 40 Este 0 -- -- 83
2020-10-22 11:00:00 15.2 23 Este 34 Este 0 -- -- 85
2020-10-22 10:00:00 14.7 24 Este 35 Sudeste -- -- -- 84
2020-10-22 09:00:00 14.3 17 Este 29 Este 0 -- -- 87
2020-10-22 08:00:00 14.7 21 Este 28 Este 0 -- -- 83
2020-10-22 07:00:00 14.9 17 Este 28 Este 0 -- -- 78
2020-10-22 06:00:00 15.6 21 Este 31 Este 0 -- -- 76
2020-10-22 05:00:00 15.9 17 Este 24 Este 0 -- -- 69
2020-10-22 04:00:00 16.2 12 Este 19 Este 0 -- -- 68
2020-10-22 03:00:00 16.2 9 Este 17 Este 0 -- -- 65
2020-10-22 02:00:00 16 10 Nordeste 17 Nordeste 0 -- -- 66
2020-10-22 01:00:00 15.8 9 Nordeste 15 Este 0 -- -- 66
2020-10-22 00:00:00 15.6 9 Este 16 Este 0 -- -- 66
2020-10-21 23:00:00 15.6 8 Este 11 Este 0 -- -- 66
2020-10-21 22:00:00 16.7 7 Oeste 11 Oeste 0 -- -- 62
2020-10-21 21:00:00 17.1 9 Oeste 15 Oeste 0 -- -- 62
2020-10-21 20:00:00 17.3 10 Oeste 26 Oeste 0 -- -- 62
2020-10-21 19:00:00 19 13 Sudoeste 31 Oeste 0 -- -- 54
2020-10-21 18:00:00 19.8 10 Oeste 22 Oeste 0 -- -- 56
2020-10-21 17:00:00 20.5 10 Sudoeste 29 Oeste 0 -- -- 54
2020-10-21 16:00:00 21 20 Oeste 28 Oeste 0 -- -- 54
2020-10-21 15:00:00 21.7 13 Sudeste 28 Este 0 -- -- 48
2020-10-21 14:00:00 21.1 16 Sudeste 31 Sudeste 0 -- -- 50
2020-10-21 13:00:00 20.8 14 Sudeste 32 Este 0 -- -- 51
2020-10-21 12:00:00 20.4 17 Este 26 Este 0 -- -- 59
2020-10-21 11:00:00 18.6 17 Este 27 Este 0 -- -- 71
2020-10-21 10:00:00 16.1 7 Este 20 Nordeste 0 -- -- 81
2020-10-21 09:00:00 14.5 10 Este 36 Sudeste 0 -- -- 83
2020-10-21 08:00:00 14.1 19 Sudeste 28 Este 0 -- -- 86
2020-10-21 07:00:00 14.7 24 Este 44 Este 0 -- -- 83
2020-10-21 06:00:00 14.9 24 Este 46 Este 0 -- -- 81
2020-10-21 05:00:00 15.1 32 Este 48 Este 0 -- -- 81
2020-10-21 04:00:00 14.9 34 Este 50 Este 0 -- -- 83
2020-10-21 03:00:00 14.7 30 Este 57 Este 0 -- -- 83
2020-10-21 02:00:00 14.2 39 Este 70 Este 0.2 -- -- 85
2020-10-21 01:00:00 14.6 49 Este 72 Este 0 -- -- 81
2020-10-21 00:00:00 15 43 Este 68 Este 0 -- -- 80
2020-10-20 23:00:00 14.8 43 Este 76 Sudeste 0 -- -- 81
2020-10-20 22:00:00 14.7 40 Este 75 Este 0 -- -- 82
2020-10-20 21:00:00 14.8 57 Este 81 Este 0 -- -- 79
2020-10-20 20:00:00 14.7 60 Este 85 Este 0 -- -- 78
2020-10-20 19:00:00 14.9 59 Este 79 Este 0 -- -- 81
2020-10-20 18:00:00 15.3 51 Este 74 Este 0 -- -- 83
2020-10-20 17:00:00 15.7 44 Este 72 Este 0 -- -- 84
2020-10-20 16:00:00 15.5 40 Este 64 Este 0 -- -- 87
2020-10-20 15:00:00 14.8 39 Este 57 Este 0 -- -- 91
2020-10-20 14:00:00 14.4 36 Este 52 Nordeste 0.2 -- -- 92
2020-10-20 13:00:00 14 35 Este 53 Este 1.4 -- -- 92
2020-10-20 12:00:00 14 29 Este 50 Este 0.4 -- -- 90
2020-10-20 11:00:00 14 37 Este 55 Este 0 -- -- 87
2020-10-20 10:00:00 14 37 Este 64 Este 0 -- -- 87
2020-10-20 09:00:00 14 43 Este 59 Este 0 -- -- 84
2020-10-20 08:00:00 13.8 37 Este 51 Este 0 -- -- 84
2020-10-20 07:00:00 13.8 36 Este 50 Este 0 -- -- 82
2020-10-20 06:00:00 13.7 39 Este 57 Este 0 -- -- 81
2020-10-20 05:00:00 13.5 36 Este 69 Este 0 -- -- 80
2020-10-20 04:00:00 13.4 45 Este 64 Este 0 -- -- 81
2020-10-20 03:00:00 13.4 39 Este 64 Este 0 -- -- 81
2020-10-20 02:00:00 13.3 25 Este 66 Este 0 -- -- 81
2020-10-20 01:00:00 13.4 49 Este 69 Este 0 -- -- 82
2020-10-20 00:00:00 13.6 39 Este 66 Este 0 -- -- 81
2020-10-19 23:00:00 14 46 Este 61 Este 0 -- -- 78
2020-10-19 22:00:00 14.7 42 Este 63 Este 0 -- -- 68
2020-10-19 21:00:00 15.9 41 Este 57 Este 0 -- -- 64
2020-10-19 20:00:00 16.7 39 Este 61 Este 0 -- -- 64
2020-10-19 19:00:00 17.7 38 Este 51 Este 0 -- -- 59
2020-10-19 18:00:00 19.2 33 Este 54 Este 0 -- -- 54
2020-10-19 17:00:00 19.7 37 Este 55 Este 0 -- -- 50
2020-10-19 16:00:00 19.2 37 Este 58 Este 0 -- -- 50
2020-10-19 15:00:00 18.2 35 Este 57 Este 0 -- -- 56
2020-10-19 14:00:00 16.8 37 Este 57 Este 0 -- -- 61
2020-10-19 13:00:00 15.2 37 Este 58 Este 0 -- -- 64
2020-10-19 12:00:00 14.3 44 Este 56 Este 0 -- -- 66
2020-10-19 11:00:00 13.2 37 Este 51 Este 0 -- -- 70
2020-10-19 10:00:00 11.6 26 Este 42 Este 0 -- -- 70
2020-10-19 09:00:00 10.5 29 Este 40 Este 0 -- -- 75
2020-10-19 08:00:00 9.6 24 Este 34 Este 0 -- -- 77
2020-10-19 07:00:00 10 26 Este 32 Nordeste 0 -- -- 78
2020-10-19 06:00:00 10 22 Este 27 Este 0 -- -- 75
2020-10-19 05:00:00 10 18 Este 28 Este 0 -- -- 71
2020-10-19 04:00:00 10.4 17 Este 23 Este 0 -- -- 65
2020-10-19 03:00:00 10.8 15 Este 21 Este 0 -- -- 58
2020-10-19 02:00:00 10.7 11 Este 17 Este 0 -- -- 59
2020-10-19 01:00:00 11.6 9 Este 16 Este 0 -- -- 57
2020-10-19 00:00:00 11.6 14 Este 20 Este 0 -- -- 57
2020-10-18 23:00:00 12.4 15 Este 19 Este 0 -- -- 54
2020-10-18 22:00:00 12.5 11 Este 15 Nordeste 0 -- -- 54
2020-10-18 21:00:00 13.4 11 Nordeste 15 Nordeste 0 -- -- 56
2020-10-18 20:00:00 15 9 Este 15 Este 0 -- -- 51
2020-10-18 19:00:00 18.2 9 Este 16 Este 0 -- -- 44
2020-10-18 18:00:00 20.7 2 Sudeste 8 Sur 0 -- -- 24
2020-10-18 17:00:00 19.2 5 Sudoeste 17 Oeste 0 -- -- 34
2020-10-18 16:00:00 18.3 13 Oeste 21 Oeste 0 -- -- 39
2020-10-18 15:00:00 17.7 9 Oeste 20 Sudoeste 0 -- -- 41
2020-10-18 14:00:00 16.3 10 Oeste 19 Oeste 0 -- -- 48
2020-10-18 13:00:00 15 14 Oeste 22 Sudoeste 0 -- -- 53
2020-10-18 12:00:00 13.7 10 Oeste 16 Oeste 0 -- -- 57
2020-10-18 11:00:00 12.2 4 Oeste 8 Noroeste 0 -- -- 63
2020-10-18 10:00:00 8.7 7 Este 13 Nordeste 0 -- -- 77
2020-10-18 09:00:00 7 8 Nordeste 13 Nordeste 0 -- -- 82
2020-10-18 08:00:00 6.5 5 Este 7 Este 0 -- -- 81
2020-10-18 07:00:00 6.9 4 Este 9 Este 0 -- -- 78
2020-10-18 06:00:00 6.7 6 Este 10 Este 0 -- -- 77
2020-10-18 05:00:00 6.8 3 Este 7 Este 0 -- -- 76
2020-10-18 04:00:00 7.1 6 Este 9 Este 0 -- -- 77
2020-10-18 03:00:00 7.9 6 Este 10 Nordeste 0 -- -- 73
2020-10-18 02:00:00 8.2 8 Este 11 Este 0 -- -- 71
2020-10-18 01:00:00 7.5 10 Nordeste 12 Nordeste 0 -- -- 75
2020-10-18 00:00:00 9 5 Nordeste 10 Este 0 -- -- 67
2020-10-17 23:00:00 8.9 9 Nordeste 9 Nordeste 0 -- -- 66
2020-10-17 22:00:00 9.7 7 Este 8 Este 0 -- -- 64
2020-10-17 21:00:00 11.3 2 Este 13 Noroeste 0 -- -- 58
2020-10-17 20:00:00 13.1 6 Noroeste 20 Noroeste 0 -- -- 53
2020-10-17 19:00:00 14.5 11 Oeste 26 Noroeste 0 -- -- 48
2020-10-17 18:00:00 15.5 11 Noroeste 28 Noroeste 0 -- -- 45
2020-10-17 17:00:00 16.2 13 Oeste 32 Oeste 0 -- -- 43
2020-10-17 16:00:00 16.2 16 Oeste 26 Oeste 0 -- -- 41
2020-10-17 15:00:00 15.5 15 Oeste 23 Oeste 0 -- -- 44
2020-10-17 14:00:00 14 16 Oeste 22 Oeste 0 -- -- 51
2020-10-17 13:00:00 12.4 13 Oeste 21 Sudoeste 0 -- -- 59
2020-10-17 12:00:00 11 8 Oeste 14 Sudoeste 0 -- -- 63
2020-10-17 11:00:00 8.6 8 Oeste 12 Oeste 0 -- -- 73
2020-10-17 10:00:00 6.1 0 Calma 9 Nordeste 0 -- -- 85
2020-10-17 09:00:00 4.1 8 Nordeste 11 Nordeste 0 -- -- 89
2020-10-17 08:00:00 2.9 10 Nordeste 13 Nordeste 0 -- -- 92
2020-10-17 07:00:00 2.9 9 Nordeste 11 Nordeste 0 -- -- 89
2020-10-17 06:00:00 2.9 9 Nordeste 12 Nordeste 0 -- -- 91
2020-10-17 05:00:00 2.6 9 Nordeste 12 Nordeste 0 -- -- 89
2020-10-17 04:00:00 4 7 Nordeste 9 Nordeste 0 -- -- 87
2020-10-17 03:00:00 4.1 8 Nordeste 9 Nordeste 0 -- -- 86
2020-10-17 02:00:00 4.9 3 Este 4 Nordeste 0 -- -- 81
2020-10-17 01:00:00 5.6 0 Calma 7 Oeste 0 -- -- 77
2020-10-17 00:00:00 6 5 Oeste 8 Oeste 0 -- -- 77
2020-10-16 23:00:00 6.6 6 Oeste 12 Oeste 0 -- -- 74
2020-10-16 22:00:00 8.9 9 Noroeste 21 Noroeste 0 -- -- 65
2020-10-16 21:00:00 9.9 13 Noroeste 26 Noroeste 0 -- -- 60
2020-10-16 20:00:00 10.5 15 Noroeste 25 Oeste 0 -- -- 59
2020-10-16 19:00:00 12.1 13 Oeste 35 Oeste 0 -- -- 55
2020-10-16 18:00:00 13.3 20 Oeste 33 Oeste 0 -- -- 49
2020-10-16 17:00:00 14.5 21 Oeste 32 Oeste 0 -- -- 44
2020-10-16 16:00:00 14.2 22 Oeste 40 Oeste 0 -- -- 44
2020-10-16 15:00:00 14.1 18 Oeste 33 Oeste 0 -- -- 47
2020-10-16 14:00:00 13.1 23 Oeste 36 Oeste 0 -- -- 49
2020-10-16 13:00:00 11.6 21 Oeste 35 Oeste 0 -- -- 56
2020-10-16 12:00:00 10.5 16 Oeste 40 Noroeste 0 -- -- 60
2020-10-16 11:00:00 8.5 22 Oeste 34 Oeste 0 -- -- 69
2020-10-16 10:00:00 7 18 Oeste 34 Oeste 0 -- -- 77
2020-10-16 09:00:00 5.6 19 Oeste 43 Oeste 0 -- -- 84
2020-10-16 08:00:00 5.7 24 Noroeste 45 Oeste 0 -- -- 83
2020-10-16 07:00:00 5.8 19 Oeste 33 Oeste 0 -- -- 84
2020-10-16 06:00:00 5.3 16 Oeste 41 Oeste 0 -- -- 87
2020-10-16 05:00:00 5.8 23 Noroeste 48 Oeste 0 -- -- 85
2020-10-16 04:00:00 5.9 20 Oeste 44 Noroeste 0 -- -- 82
2020-10-16 03:00:00 5.8 22 Oeste 37 Oeste 0 -- -- 82
2020-10-16 02:00:00 5.9 17 Noroeste 41 Noroeste 0 -- -- 81
2020-10-16 01:00:00 6 21 Oeste 45 Oeste 0 -- -- 79
2020-10-16 00:00:00 6.1 20 Noroeste 46 Oeste 0 -- -- 77
2020-10-15 23:00:00 6.5 22 Oeste 44 Oeste 0 -- -- 75
2020-10-15 22:00:00 6.9 22 Noroeste 44 Oeste 0 -- -- 73
2020-10-15 21:00:00 7.5 23 Oeste 45 Noroeste 0 -- -- 69
2020-10-15 20:00:00 8.6 27 Oeste 49 Oeste 0 -- -- 68
2020-10-15 19:00:00 10 27 Oeste 49 Oeste 0 -- -- 62
2020-10-15 18:00:00 11.6 25 Oeste 56 Oeste 0 -- -- 54
2020-10-15 17:00:00 12.1 33 Oeste 57 Oeste 0 -- -- 54
2020-10-15 16:00:00 12.4 33 Oeste 52 Oeste 0 -- -- 52
2020-10-15 15:00:00 12.9 32 Oeste 51 Oeste 0 -- -- 49
2020-10-15 14:00:00 12 26 Noroeste 49 Oeste 0 -- -- 47
2020-10-15 13:00:00 11.5 32 Oeste 55 Oeste 0 -- -- 60
2020-10-15 12:00:00 10.4 29 Oeste 48 Oeste 0 -- -- 67
2020-10-15 11:00:00 8.7 27 Oeste 49 Oeste 0 -- -- 76
2020-10-15 10:00:00 7.8 24 Oeste 36 Oeste 0 -- -- 79
2020-10-15 09:00:00 5.7 18 Oeste 32 Oeste 0 -- -- 87
2020-10-15 08:00:00 5.5 15 Oeste 28 Oeste 0 -- -- 90
2020-10-15 07:00:00 5.3 13 Oeste 27 Noroeste 0 -- -- 89
2020-10-15 06:00:00 4.9 13 Oeste 30 Oeste 0 -- -- 91
2020-10-15 05:00:00 5.5 16 Oeste 33 Oeste 0 -- -- 88
2020-10-15 04:00:00 6.3 20 Noroeste 34 Oeste 0 -- -- 85
2020-10-15 03:00:00 5.6 19 Oeste 31 Oeste 0 -- -- 87
2020-10-15 02:00:00 5.1 14 Oeste 41 Oeste 0 -- -- 90
2020-10-15 01:00:00 7.2 19 Oeste 41 Noroeste 0 -- -- 78
2020-10-15 00:00:00 7.4 24 Noroeste 40 Noroeste 0 -- -- 78
2020-10-14 23:00:00 7 24 Oeste 41 Oeste 0 -- -- 85
2020-10-14 22:00:00 7.7 20 Noroeste 36 Noroeste 0 -- -- 82
2020-10-14 21:00:00 8.5 20 Noroeste 42 Noroeste 0 -- -- 81
2020-10-14 20:00:00 8.5 17 Oeste 43 Oeste 0 -- -- 75
2020-10-14 19:00:00 9.6 27 Oeste 47 Oeste 0 -- -- 68
2020-10-14 18:00:00 10.3 28 Oeste 53 Oeste 0 -- -- 67
2020-10-14 17:00:00 11.4 27 Noroeste 46 Noroeste 0 -- -- 61
2020-10-14 16:00:00 11.3 19 Noroeste 42 Noroeste 0 -- -- 62
2020-10-14 15:00:00 12.2 26 Noroeste 41 Oeste 0 -- -- 61
2020-10-14 14:00:00 11.9 23 Oeste 40 Oeste 0 -- -- 60
2020-10-14 13:00:00 11.3 28 Oeste 41 Noroeste 0 -- -- 60
2020-10-14 12:00:00 11.2 23 Oeste 43 Oeste 0 -- -- 64
2020-10-14 11:00:00 10.5 23 Noroeste 42 Oeste 0 -- -- 70
2020-10-14 10:00:00 9.6 24 Oeste 37 Oeste 0 -- -- 75
2020-10-14 09:00:00 8.9 19 Oeste 35 Oeste 0 -- -- 79
2020-10-14 08:00:00 8.6 20 Noroeste 36 Oeste 0 -- -- 82
2020-10-14 07:00:00 9 20 Oeste 40 Oeste 0 -- -- 80
2020-10-14 06:00:00 8.6 14 Noroeste 34 Oeste 0 -- -- 82
2020-10-14 05:00:00 8.2 13 Oeste 24 Oeste 0 -- -- 83
2020-10-14 04:00:00 8.5 14 Oeste 26 Oeste 0 -- -- 84
2020-10-14 03:00:00 9.6 14 Noroeste 26 Oeste 0 -- -- 81
2020-10-14 02:00:00 9.6 9 Noroeste 27 Noroeste 0 -- -- 79
2020-10-14 01:00:00 10.4 13 Noroeste 24 Oeste 0 -- -- 75
2020-10-14 00:00:00 10.8 14 Oeste 27 Oeste 0 -- -- 75
2020-10-13 23:00:00 11.1 13 Noroeste 28 Noroeste 0 -- -- 73
2020-10-13 22:00:00 11.2 13 Oeste 27 Oeste 0 -- -- 72
2020-10-13 21:00:00 10.9 9 Oeste 20 Noroeste 0 -- -- 71
2020-10-13 20:00:00 11.6 11 Oeste 24 Noroeste 0 -- -- 67
2020-10-13 19:00:00 13.4 15 Noroeste 33 Noroeste 0 -- -- 61
2020-10-13 18:00:00 15.7 19 Noroeste 47 Noroeste 0 -- -- 54
2020-10-13 17:00:00 16.6 28 Noroeste 51 Oeste 0 -- -- 50
2020-10-13 16:00:00 16.4 21 Noroeste 42 Oeste 0 -- -- 51
2020-10-13 15:00:00 16.5 31 Oeste 51 Oeste 0 -- -- 51
2020-10-13 14:00:00 15.9 27 Noroeste 44 Noroeste 0 -- -- 60
2020-10-13 13:00:00 15.4 24 Noroeste 53 Oeste 0 -- -- 67
2020-10-13 12:00:00 14.8 24 Noroeste 40 Oeste 0 -- -- 70
2020-10-13 11:00:00 13.7 20 Oeste 36 Oeste 0 -- -- 72
2020-10-13 10:00:00 -- -- -- -- -- -- -- -- --
2020-10-13 09:00:00 10.1 12 Oeste 24 Oeste 0 -- -- 85
2020-10-13 08:00:00 10.1 13 Oeste 23 Oeste 0 -- -- 90
2020-10-13 07:00:00 9.2 15 Oeste 23 Oeste 0 -- -- 94
2020-10-13 06:00:00 9.6 14 Oeste 27 Oeste 0 -- -- 85
2020-10-13 05:00:00 8.4 11 Oeste 18 Oeste 0 -- -- 88
2020-10-13 04:00:00 9.1 12 Oeste 27 Noroeste 0 -- -- 85
2020-10-13 03:00:00 10.9 13 Noroeste 18 Noroeste 0 -- -- 79
2020-10-13 02:00:00 9.6 9 Oeste 22 Oeste 0 -- -- 77
2020-10-13 01:00:00 -- -- -- -- -- -- -- -- --
2020-10-13 00:00:00 10.8 14 Oeste 26 Noroeste 0 -- -- 65
2020-10-12 23:00:00 11 15 Noroeste 31 Noroeste 0 -- -- 63
2020-10-12 22:00:00 10.7 12 Oeste 32 Noroeste 0 -- -- 68
2020-10-12 21:00:00 10.9 21 Noroeste 36 Oeste 0 -- -- 68
2020-10-12 20:00:00 10.9 19 Noroeste 35 Noroeste 0 -- -- 69
2020-10-12 19:00:00 12.1 20 Noroeste 50 Noroeste 0 -- -- 66
2020-10-12 18:00:00 -- -- -- -- -- -- -- -- --
2020-10-12 17:00:00 14.8 29 Oeste 55 Noroeste 0 -- -- 49
2020-10-12 16:00:00 14.7 29 Noroeste 53 Oeste 0 -- -- 49
2020-10-12 15:00:00 15.3 24 Noroeste 51 Noroeste 0 -- -- 49
2020-10-12 14:00:00 14.5 31 Noroeste 53 Oeste 0 -- -- 51
2020-10-12 13:00:00 14.2 29 Oeste 51 Oeste 0 -- -- 52
2020-10-12 12:00:00 13.1 24 Oeste 45 Oeste 0 -- -- 57
2020-10-12 11:00:00 11.4 19 Oeste 37 Oeste 0 -- -- 71
2020-10-12 10:00:00 9.3 24 Oeste 40 Oeste 0 -- -- 83
2020-10-12 09:00:00 7.9 22 Noroeste 46 Oeste 0 -- -- 89
2020-10-12 08:00:00 7.9 27 Oeste 44 Noroeste 0 -- -- 88
2020-10-12 07:00:00 7.8 24 Oeste 47 Oeste 0 -- -- 88
2020-10-12 06:00:00 7.9 24 Oeste 46 Oeste 0 -- -- 86
2020-10-12 05:00:00 7.8 22 Oeste 51 Oeste 0 -- -- 88
2020-10-12 04:00:00 -- -- -- -- -- -- -- -- --
2020-10-12 03:00:00 8.1 28 Oeste 47 Oeste -- -- -- 86
2020-10-12 02:00:00 8 30 Noroeste 45 Noroeste 0 -- -- 85
2020-10-12 01:00:00 7.9 22 Noroeste 41 Oeste 0 -- -- 84
2020-10-12 00:00:00 8.1 21 Oeste 34 Oeste 0 -- -- 84
2020-10-11 23:00:00 8.7 14 Noroeste 38 Noroeste 0 -- -- 80
2020-10-11 22:00:00 8.9 17 Oeste 44 Oeste 0 -- -- 79
2020-10-11 21:00:00 -- -- -- -- -- -- -- -- --
2020-10-11 20:00:00 -- -- -- -- -- -- -- -- --
2020-10-11 19:00:00 10.5 32 Noroeste 55 Noroeste 0 -- -- 70
2020-10-11 18:00:00 12.2 29 Noroeste 55 Noroeste 0 -- -- 64
2020-10-11 17:00:00 13 25 Noroeste 66 Oeste 0 -- -- 59
2020-10-11 16:00:00 14.1 32 Noroeste 60 Oeste 0 -- -- 55
2020-10-11 15:00:00 13.6 33 Noroeste 58 Noroeste 0 -- -- 56
2020-10-11 14:00:00 13.2 28 Noroeste 53 Noroeste 0 -- -- 55
2020-10-11 13:00:00 12.9 25 Noroeste 46 Noroeste 0 -- -- 58
2020-10-11 12:00:00 11.5 23 Oeste 43 Oeste 0 -- -- 65
2020-10-11 11:00:00 10.7 30 Noroeste 53 Noroeste 0 -- -- 64
2020-10-11 10:00:00 9.2 30 Noroeste 50 Oeste 0 -- -- 69
2020-10-11 09:00:00 7.8 24 Oeste 46 Noroeste 0 -- -- 73
2020-10-11 08:00:00 7.9 29 Noroeste 49 Noroeste 0 -- -- 70
2020-10-11 07:00:00 8.1 24 Noroeste 45 Oeste 0 -- -- 67
2020-10-11 06:00:00 8.5 13 Oeste 42 Noroeste 0 -- -- 66
2020-10-11 05:00:00 8.9 17 Oeste 42 Noroeste 0 -- -- 69
2020-10-11 04:00:00 9.5 23 Noroeste 48 Noroeste 0 -- -- 69
2020-10-11 03:00:00 10 23 Noroeste 45 Noroeste 0 -- -- 71
2020-10-11 02:00:00 9.6 20 Noroeste 36 Oeste 0 -- -- 79
2020-10-11 01:00:00 10.1 25 Noroeste 48 Noroeste 0 -- -- 76
2020-10-11 00:00:00 10.2 19 Noroeste 41 Oeste 0 -- -- 75
2020-10-10 23:00:00 10.9 22 Noroeste 45 Oeste 0 -- -- 72
2020-10-10 22:00:00 11 27 Oeste 56 Noroeste 0 -- -- 69
2020-10-10 21:00:00 11.6 27 Oeste 48 Oeste 0 -- -- 64
2020-10-10 20:00:00 12.9 27 Noroeste 52 Oeste 0 -- -- 65
2020-10-10 19:00:00 15 28 Noroeste 55 Noroeste 0 -- -- 56
2020-10-10 18:00:00 16.8 25 Noroeste 52 Noroeste 0 -- -- 50
2020-10-10 17:00:00 17.6 31 Oeste 60 Oeste 0 -- -- 45
2020-10-10 16:00:00 18.2 25 Noroeste 47 Noroeste 0 -- -- 51
2020-10-10 15:00:00 18.2 26 Noroeste 46 Oeste 0 -- -- 57
2020-10-10 14:00:00 17.4 26 Noroeste 50 Oeste 0 -- -- 63
2020-10-10 13:00:00 18.8 31 Oeste 48 Oeste 0 -- -- 59
2020-10-10 12:00:00 17.1 18 Noroeste 32 Oeste 0 -- -- 64
2020-10-10 11:00:00 14.6 23 Oeste 38 Oeste 0 -- -- 75
2020-10-10 10:00:00 13.1 18 Oeste 31 Noroeste 0 -- -- 80
2020-10-10 09:00:00 11 15 Oeste 24 Sudoeste 0 -- -- 88
2020-10-10 08:00:00 11 12 Oeste 24 Oeste 0 -- -- 86
2020-10-10 07:00:00 11.4 4 Oeste 22 Noroeste 0 -- -- 86
2020-10-10 06:00:00 11.8 12 Oeste 20 Oeste 0 -- -- 87
2020-10-10 05:00:00 10.9 14 Oeste 19 Oeste 0 -- -- 93
2020-10-10 04:00:00 11.4 11 Oeste 17 Sudoeste 0 -- -- 94
2020-10-10 03:00:00 12.1 9 Oeste 13 Oeste 0 -- -- 93
2020-10-10 02:00:00 12.8 9 Oeste 19 Oeste 0 -- -- 91
2020-10-10 01:00:00 13.6 13 Oeste 20 Oeste 0 -- -- 88
2020-10-10 00:00:00 13.8 8 Oeste 15 Oeste 0 -- -- 88
2020-10-09 23:00:00 15 9 Noroeste 14 Sudoeste 0 -- -- 85
2020-10-09 22:00:00 16.4 7 Oeste 21 Oeste 0 -- -- 80
2020-10-09 21:00:00 18.3 6 Oeste 10 Oeste 0 -- -- 73
2020-10-09 20:00:00 20.3 0 Calma 12 Oeste 0 -- -- 66
2020-10-09 19:00:00 22.2 12 Oeste 19 Oeste 0 -- -- 58
2020-10-09 18:00:00 23.2 16 Oeste 22 Oeste 0 -- -- 59
2020-10-09 17:00:00 23.8 14 Oeste 20 Oeste 0 -- -- 57
2020-10-09 16:00:00 23.3 12 Sudoeste 19 Sudoeste 0 -- -- 59
2020-10-09 15:00:00 22.5 9 Sudoeste 21 Sudoeste 0 -- -- 64
2020-10-09 14:00:00 20.9 13 Oeste 19 Oeste 0 -- -- 70
2020-10-09 13:00:00 19.5 9 Oeste 16 Sudoeste 0 -- -- 75
2020-10-09 12:00:00 17.9 9 Oeste 13 Oeste 0 -- -- 81
2020-10-09 11:00:00 17.7 7 Este 12 Este 0 -- -- 87
2020-10-09 10:00:00 15.6 7 Este 10 Este 0 -- -- 95
2020-10-09 09:00:00 14.9 6 Este 8 Este 0 -- -- 94
2020-10-09 08:00:00 14.7 2 Este 12 Nordeste 0 -- -- 94
2020-10-09 07:00:00 12.6 8 Nordeste 11 Nordeste 0 -- -- 91
2020-10-09 06:00:00 14.5 6 Nordeste 8 Nordeste 0 -- -- 90
2020-10-09 05:00:00 15.4 0 Calma 14 Este 0 -- -- 86
2020-10-09 04:00:00 15.9 9 Nordeste 19 Este 0 -- -- 79
2020-10-09 03:00:00 16 12 Nordeste 19 Nordeste 0 -- -- 73
2020-10-09 02:00:00 16.3 10 Nordeste 14 Nordeste 0 -- -- 70
2020-10-09 01:00:00 16.7 9 Nordeste 16 Este 0 -- -- 70
2020-10-09 00:00:00 17.6 10 Este 15 Nordeste 0 -- -- 66
2020-10-08 23:00:00 17.6 9 Nordeste 13 Nordeste 0 -- -- 67
2020-10-08 22:00:00 18 10 Nordeste 13 Este 0 -- -- 64
2020-10-08 21:00:00 17.8 7 Nordeste 12 Este 0 -- -- 65
2020-10-08 20:00:00 19.6 8 Nordeste 12 Nordeste 0 -- -- 59
2020-10-08 19:00:00 21.1 8 Este 18 Este 0 -- -- 56
2020-10-08 18:00:00 22.7 13 Este 22 Este 0 -- -- 50
2020-10-08 17:00:00 23.6 12 Este 21 Este 0 -- -- 46
2020-10-08 16:00:00 23.6 12 Este 22 Este 0 -- -- 49
2020-10-08 15:00:00 23.4 8 Sudeste 22 Este 0 -- -- 50
2020-10-08 14:00:00 22 10 Este 19 Este 0 -- -- 56
2020-10-08 13:00:00 19.9 6 Este 14 Este 0 -- -- 61
2020-10-08 12:00:00 16.5 6 Oeste 11 Este 0 -- -- 77
2020-10-08 11:00:00 17.2 6 Este 14 Este 0 -- -- 73
2020-10-08 10:00:00 14.3 6 Este 13 Nordeste 0 -- -- 83
2020-10-08 09:00:00 10.5 10 Nordeste 13 Nordeste 0 -- -- 92
2020-10-08 08:00:00 9.8 11 Nordeste 14 Nordeste 0 -- -- 90
2020-10-08 07:00:00 9.9 8 Nordeste 14 Nordeste 0 -- -- 91
2020-10-08 06:00:00 10.9 6 Nordeste 10 Este 0 -- -- 88
2020-10-08 05:00:00 11.8 3 Norte 7 Oeste 0 -- -- 87
2020-10-08 04:00:00 11.7 4 Oeste 10 Oeste 0 -- -- 88
2020-10-08 03:00:00 11.5 7 Oeste 15 Oeste 0 -- -- 89
2020-10-08 02:00:00 12.6 10 Oeste 23 Oeste 0 -- -- 85
2020-10-08 01:00:00 13.5 10 Oeste 31 Oeste 0 -- -- 81
2020-10-08 00:00:00 13.7 18 Oeste 26 Oeste 0 -- -- 82
2020-10-07 23:00:00 13.3 7 Oeste 22 Oeste 0 -- -- 84
2020-10-07 22:00:00 15.5 14 Oeste 33 Noroeste 0 -- -- 73
2020-10-07 21:00:00 16.3 18 Noroeste 32 Noroeste 0 -- -- 70
2020-10-07 20:00:00 17 18 Noroeste 32 Norte 0 -- -- 67
2020-10-07 19:00:00 18.7 17 Noroeste 35 Noroeste 0 -- -- 62
2020-10-07 18:00:00 20.3 19 Noroeste 43 Noroeste 0 -- -- 60
2020-10-07 17:00:00 20.8 18 Noroeste 37 Noroeste 0 -- -- 58
2020-10-07 16:00:00 20 25 Noroeste 46 Noroeste 0 -- -- 61
2020-10-07 15:00:00 20.6 21 Noroeste 40 Oeste 0 -- -- 61
2020-10-07 14:00:00 19.9 25 Noroeste 40 Oeste 0 -- -- 65
2020-10-07 13:00:00 19 24 Oeste 41 Oeste 0 -- -- 71
2020-10-07 12:00:00 18.2 22 Oeste 35 Oeste 0 -- -- 74
2020-10-07 11:00:00 16.7 21 Oeste 32 Oeste 0 -- -- 78
2020-10-07 10:00:00 14.4 14 Oeste 27 Oeste 0 -- -- 89
2020-10-07 09:00:00 12.9 11 Oeste 26 Oeste 0 -- -- 93
2020-10-07 08:00:00 15.1 20 Noroeste 29 Noroeste 0 -- -- 82
2020-10-07 07:00:00 14.9 14 Noroeste 25 Noroeste 0 -- -- 87
2020-10-07 06:00:00 12.8 9 Oeste 16 Oeste 0 -- -- 92
2020-10-07 05:00:00 15 10 Oeste 19 Noroeste 0 -- -- 80
2020-10-07 04:00:00 14 4 Oeste 10 Oeste 0 -- -- 86
2020-10-07 03:00:00 14.6 4 Oeste 8 Oeste 0 -- -- 82
2020-10-07 02:00:00 14.2 0 Calma 10 Nordeste 0 -- -- 83
2020-10-07 01:00:00 13.2 6 Este 10 Nordeste 0 -- -- 86
2020-10-07 00:00:00 14.7 7 Nordeste 9 Este 0 -- -- 82
2020-10-06 23:00:00 14.9 6 Este 9 Este 0 -- -- 81
2020-10-06 22:00:00 16.3 5 Nordeste 7 Nordeste 0 -- -- 76
2020-10-06 21:00:00 17.6 2 Este 16 Noroeste 0 -- -- 72
2020-10-06 20:00:00 19.1 6 Noroeste 15 Oeste 0 -- -- 67
2020-10-06 19:00:00 19.7 11 Oeste 24 Oeste 0 -- -- 67
2020-10-06 18:00:00 20.9 15 Oeste 25 Oeste 0 -- -- 60
2020-10-06 17:00:00 21.1 13 Oeste 22 Oeste 0 -- -- 57
2020-10-06 16:00:00 21.6 12 Oeste 24 Oeste 0 -- -- 55
2020-10-06 15:00:00 20.6 14 Sudoeste 22 Oeste 0 -- -- 56
2020-10-06 14:00:00 19.9 17 Oeste 23 Oeste 0 -- -- 57
2020-10-06 13:00:00 18.8 12 Oeste 25 Oeste 0 -- -- 59
2020-10-06 12:00:00 18.4 14 Oeste 23 Oeste 0 -- -- 60
2020-10-06 11:00:00 15.8 5 Sudoeste 8 Oeste 0 -- -- 57
2020-10-06 10:00:00 13.3 3 Este 8 Este 0 -- -- 69
2020-10-06 09:00:00 10.8 0 Calma 7 Este 0 -- -- 74
2020-10-06 08:00:00 12.5 3 Norte 8 Nordeste 0 -- -- 64
2020-10-06 07:00:00 11.9 3 Este 8 Este 0 -- -- 71
2020-10-06 06:00:00 12.6 0 Calma 8 Nordeste 0 -- -- 63
2020-10-06 05:00:00 12.2 5 Este 11 Este 0 -- -- 63
2020-10-06 04:00:00 10.6 9 Este 13 Nordeste 0 -- -- 70
2020-10-06 03:00:00 11.9 9 Nordeste 13 Nordeste 0 -- -- 64
2020-10-06 02:00:00 13.1 10 Nordeste 18 Norte 0 -- -- 60
2020-10-06 01:00:00 12.3 10 Nordeste 13 Nordeste 0 -- -- 63
2020-10-06 00:00:00 12.3 5 Nordeste 15 Nordeste 0 -- -- 63
2020-10-05 23:00:00 11.8 7 Nordeste 14 Nordeste 0 -- -- 65
2020-10-05 22:00:00 11.2 10 Nordeste 13 Nordeste 0 -- -- 68
2020-10-05 21:00:00 11.1 10 Nordeste 14 Nordeste 0 -- -- 70
2020-10-05 20:00:00 14.7 2 Nordeste 13 Noroeste 0 -- -- 56
2020-10-05 19:00:00 16.7 10 Noroeste 29 Noroeste 0 -- -- 48
2020-10-05 18:00:00 17.3 14 Noroeste 35 Noroeste 0 -- -- 46
2020-10-05 17:00:00 17.3 18 Noroeste 32 Oeste 0 -- -- 46
2020-10-05 16:00:00 17 17 Noroeste 36 Oeste 0 -- -- 50
2020-10-05 15:00:00 15 17 Noroeste 42 Oeste 0 -- -- 56
2020-10-05 14:00:00 15.2 26 Oeste 47 Oeste 0 -- -- 56
2020-10-05 13:00:00 13.5 26 Oeste 42 Oeste 0 -- -- 66
2020-10-05 12:00:00 12.2 22 Oeste 40 Oeste 0 -- -- 70
2020-10-05 11:00:00 11.3 22 Oeste 34 Oeste 0 -- -- 75
2020-10-05 10:00:00 9.9 16 Oeste 28 Oeste 0 -- -- 82
2020-10-05 09:00:00 9 14 Oeste 24 Oeste 0 -- -- 86
2020-10-05 08:00:00 7.4 4 Noroeste 6 Oeste 0 -- -- 94
2020-10-05 07:00:00 7.4 5 Noroeste 8 Oeste 0 -- -- 92
2020-10-05 06:00:00 5.8 6 Este 8 Este 0 -- -- 91
2020-10-05 05:00:00 6.1 7 Este 9 Este 0 -- -- 91
2020-10-05 04:00:00 6.4 7 Este 9 Este 0 -- -- 91
2020-10-05 03:00:00 7.3 3 Nordeste 12 Nordeste 0 -- -- 88
2020-10-05 02:00:00 7.2 6 Este 10 Este 0 -- -- 92
2020-10-05 01:00:00 7 6 Este 9 Este 0 -- -- 93
2020-10-05 00:00:00 7.4 4 Nordeste 10 Nordeste 0 -- -- 94
2020-10-04 23:00:00 8 2 Nordeste 10 Este 0 -- -- 93
2020-10-04 22:00:00 7.8 5 Este 9 Este 0 -- -- 92
2020-10-04 21:00:00 8.8 0 Calma 9 Oeste 0 -- -- 88
2020-10-04 20:00:00 9.7 7 Noroeste 15 Oeste 0 -- -- 82
2020-10-04 19:00:00 10.4 10 Oeste 27 Oeste 0.4 -- -- 82
2020-10-04 18:00:00 12 15 Oeste 26 Oeste 0.4 -- -- 78
2020-10-04 17:00:00 13.1 14 Oeste 24 Oeste 0 -- -- 71
2020-10-04 16:00:00 12.5 12 Oeste 28 Noroeste 0.2 -- -- 76
2020-10-04 15:00:00 13.9 12 Noroeste 21 Noroeste 0 -- -- 68
2020-10-04 14:00:00 14.4 4 Sudeste 19 Nordeste 0 -- -- 65
2020-10-04 13:00:00 12.9 5 Oeste 21 Sudoeste 0 -- -- 68
2020-10-04 12:00:00 12.4 17 Oeste 28 Oeste 0 -- -- 70
2020-10-04 11:00:00 12.4 15 Oeste 25 Noroeste 0 -- -- 66
2020-10-04 10:00:00 10.9 8 Norte 12 Nordeste 0 -- -- 68
2020-10-04 09:00:00 9.2 9 Este 13 Nordeste 0 -- -- 73
2020-10-04 08:00:00 8.7 2 Noroeste 15 Este 0 -- -- 75
2020-10-04 07:00:00 7.8 8 Este 10 Este 0 -- -- 78
2020-10-04 06:00:00 9.3 3 Noroeste 8 Oeste 0 -- -- 73
2020-10-04 05:00:00 7.5 5 Este 11 Noroeste 0 -- -- 81
2020-10-04 04:00:00 7.5 3 Nordeste 14 Nordeste 0 -- -- 83
2020-10-04 03:00:00 8.7 4 Nordeste 12 Nordeste 0 -- -- 77
2020-10-04 02:00:00 8.3 11 Nordeste 13 Nordeste 0 -- -- 81
2020-10-04 01:00:00 8.8 10 Nordeste 11 Este 0 -- -- 80
2020-10-04 00:00:00 9.9 6 Nordeste 11 Nordeste 0 -- -- 75
2020-10-03 23:00:00 10.4 6 Nordeste 9 Nordeste 0 -- -- 70
2020-10-03 22:00:00 11.9 3 Oeste 10 Oeste 0 -- -- 62
2020-10-03 21:00:00 12.2 6 Oeste 9 Oeste 0 -- -- 62
2020-10-03 20:00:00 12.5 5 Oeste 26 Oeste 0 -- -- 65
2020-10-03 19:00:00 13.7 21 Oeste 41 Oeste 0 -- -- 58
2020-10-03 18:00:00 15.2 25 Oeste 38 Oeste 0 -- -- 53
2020-10-03 17:00:00 15.6 24 Oeste 31 Oeste 0 -- -- 49
2020-10-03 16:00:00 15.5 21 Oeste 39 Oeste 0 -- -- 53
2020-10-03 15:00:00 13.6 23 Oeste 31 Oeste 0 -- -- 58
2020-10-03 14:00:00 12.1 15 Oeste 22 Oeste 0 -- -- 67
2020-10-03 13:00:00 10.4 13 Oeste 18 Oeste 0 -- -- 70
2020-10-03 12:00:00 8.9 6 Noroeste 19 Noroeste 0.2 -- -- 78
2020-10-03 11:00:00 8.6 11 Noroeste 19 Oeste 0.2 -- -- 79
2020-10-03 10:00:00 8.3 11 Noroeste 19 Noroeste 0 -- -- 77
2020-10-03 09:00:00 7.6 6 Noroeste 10 Noroeste 0 -- -- 76
2020-10-03 08:00:00 7.5 8 Oeste 14 Oeste 0 -- -- 75
2020-10-03 07:00:00 7.2 12 Oeste 20 Oeste 0 -- -- 75
2020-10-03 06:00:00 6.5 6 Oeste 12 Oeste 0 -- -- 79
2020-10-03 05:00:00 7 11 Oeste 23 Oeste 0 -- -- 76
2020-10-03 04:00:00 7 8 Oeste 22 Oeste 0 -- -- 77
2020-10-03 03:00:00 8.6 18 Oeste 28 Oeste 0 -- -- 67
2020-10-03 02:00:00 8.1 8 Oeste 13 Oeste 0 -- -- 71
2020-10-03 01:00:00 6.7 2 Este 7 Este 0 -- -- 80
2020-10-03 00:00:00 7.1 2 Sudeste 22 Noroeste 0 -- -- 75
2020-10-02 23:00:00 8.8 15 Noroeste 26 Noroeste 0 -- -- 63
2020-10-02 22:00:00 8.7 12 Noroeste 23 Noroeste 0 -- -- 66
2020-10-02 21:00:00 9 12 Noroeste 28 Noroeste 0 -- -- 65
2020-10-02 20:00:00 9.6 16 Noroeste 33 Oeste 0 -- -- 64
2020-10-02 19:00:00 11.2 19 Oeste 36 Oeste 0 -- -- 58
2020-10-02 18:00:00 11.5 20 Noroeste 44 Oeste 0 -- -- 59
2020-10-02 17:00:00 11.3 24 Oeste 43 Oeste 0 -- -- 65
2020-10-02 16:00:00 11.2 21 Oeste 31 Oeste 0 -- -- 79
2020-10-02 15:00:00 9.6 21 Oeste 33 Oeste 0 -- -- 81
2020-10-02 14:00:00 8.1 18 Oeste 36 Oeste 0 -- -- 88
2020-10-02 13:00:00 7.7 10 Noroeste 45 Oeste 1.6 -- -- 91
2020-10-02 12:00:00 8.5 20 Noroeste 49 Noroeste 3 -- -- 88
2020-10-02 11:00:00 10.8 22 Noroeste 33 Noroeste 3.2 -- -- 92
2020-10-02 10:00:00 12.6 17 Oeste 46 Sudoeste 6.8 -- -- 93
2020-10-02 09:00:00 13.8 30 Oeste 60 Oeste 0.8 -- -- 83
2020-10-02 08:00:00 15.5 27 Oeste 45 Oeste 0.4 -- -- 71
2020-10-02 07:00:00 17.1 23 Sudoeste 55 Oeste 0 -- -- 57
2020-10-02 06:00:00 16.7 19 Sudoeste 32 Sur 0 -- -- 56
2020-10-02 05:00:00 16.6 20 Sudoeste 36 Sudoeste 0.2 -- -- 55
2020-10-02 04:00:00 14.6 6 Sur 19 Sudoeste 0 -- -- 68
2020-10-02 03:00:00 16.4 18 Sudoeste 29 Sur 0 -- -- 56
2020-10-02 02:00:00 17.1 16 Sudoeste 28 Sudoeste 0 -- -- 50
2020-10-02 01:00:00 16 11 Sur 23 Sudeste 0 -- -- 59
2020-10-02 00:00:00 15.1 14 Este 23 Este 0 -- -- 67
2020-10-01 23:00:00 15.4 10 Nordeste 14 Este 0 -- -- 64
2020-10-01 22:00:00 14.9 10 Nordeste 13 Nordeste 0 -- -- 67
2020-10-01 21:00:00 15.3 7 Nordeste 13 Nordeste 0 -- -- 66
2020-10-01 20:00:00 17.4 6 Noroeste 8 Noroeste 0 -- -- 58
2020-10-01 19:00:00 18.6 6 Noroeste 16 Noroeste 0 -- -- 55
2020-10-01 18:00:00 19.1 12 Oeste 26 Noroeste 0 -- -- 55
2020-10-01 17:00:00 19.9 15 Oeste 32 Oeste 0 -- -- 52
2020-10-01 16:00:00 19.7 11 Oeste 23 Noroeste 0 -- -- 51
2020-10-01 15:00:00 19.8 10 Noroeste 30 Oeste 0 -- -- 53
2020-10-01 14:00:00 21.1 18 Oeste 37 Oeste 0 -- -- 47
2020-10-01 13:00:00 19.5 25 Oeste 35 Oeste 0 -- -- 54
2020-10-01 12:00:00 17.8 17 Oeste 27 Oeste 0 -- -- 64
2020-10-01 11:00:00 15.3 16 Oeste 22 Sudoeste 0 -- -- 69
2020-10-01 10:00:00 13.9 12 Oeste 15 Oeste 0 -- -- 75
2020-10-01 09:00:00 12.3 7 Nordeste 10 Nordeste 0 -- -- 84
2020-10-01 08:00:00 13.3 6 Nordeste 15 Nordeste 0 -- -- 84
2020-10-01 07:00:00 13.9 10 Nordeste 17 Nordeste 0 -- -- 83
2020-10-01 06:00:00 14.2 11 Este 17 Nordeste 0 -- -- 78
2020-10-01 05:00:00 14.7 13 Este 22 Este 0 -- -- 73
2020-10-01 04:00:00 14.5 14 Este 19 Este 0 -- -- 70
2020-10-01 03:00:00 15.5 10 Este 25 Este 0 -- -- 63
2020-10-01 02:00:00 16.2 19 Este 24 Este 0 -- -- 58
2020-10-01 01:00:00 17.1 18 Este 22 Este 0 -- -- 49
2020-10-01 00:00:00 17.8 15 Nordeste 19 Nordeste 0 -- -- 46
2020-09-30 23:00:00 18.2 10 Nordeste 15 Nordeste 0 -- -- 45
2020-09-30 22:00:00 18.3 11 Este 15 Este 0 -- -- 44
2020-09-30 21:00:00 18.8 10 Este 15 Nordeste 0 -- -- 36
2020-09-30 20:00:00 21.3 10 Este 19 Este 0 -- -- 31
2020-09-30 19:00:00 23.9 11 Este 21 Este 0 -- -- 31
2020-09-30 18:00:00 26.3 8 Este 17 Este 0 -- -- 29
2020-09-30 17:00:00 26.5 4 Sudoeste 16 Oeste 0 -- -- 30
2020-09-30 16:00:00 25.1 10 Oeste 17 Oeste 0 -- -- 32
2020-09-30 15:00:00 24 9 Oeste 18 Sudoeste 0 -- -- 36
2020-09-30 14:00:00 22.3 9 Sudoeste 22 Oeste 0 -- -- 40
2020-09-30 13:00:00 20.5 9 Oeste 19 Sudoeste 0 -- -- 42
2020-09-30 12:00:00 18.7 10 Oeste 15 Oeste 0 -- -- 43
2020-09-30 11:00:00 16.5 8 Oeste 12 Oeste 0 -- -- 50
2020-09-30 10:00:00 14.3 4 Este 10 Nordeste 0 -- -- 58
2020-09-30 09:00:00 10.7 10 Nordeste 13 Nordeste 0 -- -- 64
2020-09-30 08:00:00 10.6 9 Nordeste 13 Nordeste 0 -- -- 63
2020-09-30 07:00:00 10.1 12 Nordeste 14 Nordeste 0 -- -- 65
2020-09-30 06:00:00 10.8 8 Nordeste 10 Este 0 -- -- 63
2020-09-30 05:00:00 12 4 Nordeste 15 Nordeste 0 -- -- 58
2020-09-30 04:00:00 12 12 Nordeste 15 Nordeste 0 -- -- 57
2020-09-30 03:00:00 11.5 13 Nordeste 16 Nordeste 0 -- -- 63
2020-09-30 02:00:00 12 13 Nordeste 15 Nordeste 0 -- -- 63
2020-09-30 01:00:00 12.6 12 Nordeste 17 Nordeste 0 -- -- 60
2020-09-30 00:00:00 12.2 12 Nordeste 15 Este 0 -- -- 62